Hang Da Jun 3 — 0HP7273 — position and weather

sailwx.info

Track history (hours):
 
Tides and Currents Weather Stations Pressure Air Temp Water Temp Dewpoint Dewpoint Depression Visibility Wind Speed Wind Dir Waves Ship Positions

Hang Da Jun 3

Last reported at 2017-Oct-27 15:47 UTC. Time now 2017-Dec-15 21:48 UTC.
Position N 35°51' W 000°15'.
Warning: this ship's position is 49 days out of date.

Length 67 m.

Type: Cargo ship. MMSI: 351046000.

Date/timePositionNaut miles runAvg speedWind from/ knotsBaromVisibWave heightAir tempDewpointWater temp
2017-Oct-27 15:47N 35°51' W 000°15'2 6.2
2017-Oct-27 15:30N 35°52' W 000°16'3 6.3
2017-Oct-27 15:00N 35°55' W 000°19'8 0.4
2017-Oct-26 19:06N 35°49' W 000°12'0 0.1
2017-Oct-26 19:00N 35°49' W 000°12'0 0.0
2017-Oct-26 18:28N 35°49' W 000°12'0 0.0
2017-Oct-26 17:48N 35°49' W 000°12'0 0.0
2017-Oct-26 17:18N 35°49' W 000°12'0 0.0
2017-Oct-26 16:51N 35°49' W 000°12'0 0.0
2017-Oct-26 16:27N 35°49' W 000°12'0 0.0
2017-Oct-26 16:00N 35°49' W 000°12'0 0.0
2017-Oct-26 15:21N 35°49' W 000°12'11 1.6
2017-Oct-26 08:28N 35°56' W 000°22'0 0.3
2017-Oct-26 07:30N 35°56' W 000°22'5 5.3
2017-Oct-26 06:30N 35°53' W 000°16'1 0.1
2017-Oct-25 16:16N 35°52' W 000°16'2 5.8
2017-Oct-25 16:00N 35°53' W 000°17'3 5.4
2017-Oct-25 15:27N 35°55' W 000°20'1 0.0
2017-Oct-24 19:53N 35°55' W 000°19'  
Track history (hours):
 
Tides and Currents Weather Stations Pressure Air Temp Water Temp Dewpoint Dewpoint Depression Visibility Wind Speed Wind Dir Waves Ship Positions

Hang Da Jun 3

Last reported at 2017-Oct-27 15:47 UTC. Time now 2017-Dec-15 21:48 UTC.
Position N 35°51' W 000°15'.
Warning: this ship's position is 49 days out of date.

Length 67 m.

Type: Cargo ship. MMSI: 351046000.

Date/timePositionNaut miles runAvg speedWind from/ knotsBaromVisibWave heightAir tempDewpointWater temp
2017-Oct-27 15:47N 35°51' W 000°15'2 6.2
2017-Oct-27 15:30N 35°52' W 000°16'3 6.3
2017-Oct-27 15:00N 35°55' W 000°19'8 0.4
2017-Oct-26 19:06N 35°49' W 000°12'0 0.1
2017-Oct-26 19:00N 35°49' W 000°12'0 0.0
2017-Oct-26 18:28N 35°49' W 000°12'0 0.0
2017-Oct-26 17:48N 35°49' W 000°12'0 0.0
2017-Oct-26 17:18N 35°49' W 000°12'0 0.0
2017-Oct-26 16:51N 35°49' W 000°12'0 0.0
2017-Oct-26 16:27N 35°49' W 000°12'0 0.0
2017-Oct-26 16:00N 35°49' W 000°12'0 0.0
2017-Oct-26 15:21N 35°49' W 000°12'11 1.6
2017-Oct-26 08:28N 35°56' W 000°22'0 0.3
2017-Oct-26 07:30N 35°56' W 000°22'5 5.3
2017-Oct-26 06:30N 35°53' W 000°16'1 0.1
2017-Oct-25 16:16N 35°52' W 000°16'2 5.8
2017-Oct-25 16:00N 35°53' W 000°17'3 5.4
2017-Oct-25 15:27N 35°55' W 000°20'1 0.0
2017-Oct-24 19:53N 35°55' W 000°19'  

Dump ship's entire track history